Avon Lake, Iowa
Current Conditions -  °F | °C
As of 10:32 PM on Saturday 20 Dec 2014 (Local Time) from KDSM Reporting Station
Haze Haze  
Wind Chill: -2°   Ceiling: 200
Heat Index:   Visibility: 1.5mi
Dew Point:   Wind: 9mph
Humidity: 93%   Direction: 150°SSE
Pressure: 30.09"   Gusts: NA
Location:  41.4707°N, 93.4797°W
Report Text: KDSM 210432Z 15008KT 1 1/2SM BR OVC002 02/01 A3009 RMK AO2 SFC VIS 1 3/4 T00220011
Loading
Personal Weather Stations






























Interactive Weather Map New forecast layout! Learn more

10-Day Weather Forecast

Advertisements
Track Severe Weather on mobile